Time;durP1;ratioP1;P1;durP2;ratioP2;P2;SDS_P1;SDS_P2;PMS_P1;PMS_P2;Temp;Humidity;BMP_temperature;BMP_pressure;BME280_temperature;BME280_humidity;BME280_pressure;Samples;Min_cycle;Max_cycle;Signal;HPM_P1;HPM_P2
2021/10/24 06:43:45;;;;;;;10.02;7.47;;;;;;;;;;5032035;28;20454;-96
2021/10/24 06:46:12;;;;;;;12.30;5.90;;;;;;;;;;5028318;28;20052;-88
2021/10/24 06:55:37;;;;;;;10.73;6.82;;;;;;;;;;5049019;28;20462;-91
2021/10/24 07:07:11;;;;;;;12.52;5.70;;;;;;;;;;5021504;28;20248;-91
2021/10/24 07:09:37;;;;;;;11.98;6.60;;;;;;;;;;5029173;28;129743;-92
2021/10/24 07:12:04;;;;;;;10.57;4.97;;;;;;;;;;5047198;28;20114;-96
2021/10/24 07:14:38;;;;;;;10.52;5.88;;;;;;;;;;5052969;28;20018;-94
2021/10/24 07:17:09;;;;;;;12.57;6.30;;;;;;;;;;5056284;28;20029;-94
2021/10/24 07:20:06;;;;;;;12.10;5.10;;;;;;;;;;5058976;28;20026;-95
2021/10/24 07:22:44;;;;;;;7.68;4.65;;;;;;;;;;5059101;28;20045;-95
2021/10/24 07:25:11;;;;;;;9.75;5.28;;;;;;;;;;5027742;28;20140;-94
2021/10/24 07:27:37;;;;;;;10.75;5.60;;;;;;;;;;5027609;28;20037;-94
2021/10/24 08:19:48;;;;;;;10.15;5.93;;;;;;;;;;5113809;27;1350271;-86
2021/10/24 08:22:18;;;;;;;8.70;6.43;;;;;;;;;;5172834;27;20049;-87
2021/10/24 08:45:02;;;;;;;13.75;6.82;;;;;;;;;;4077084;27;28647235;-91
2021/10/24 08:47:29;;;;;;;10.73;7.00;;;;;;;;;;5067197;28;20142;-91
2021/10/24 08:49:55;;;;;;;13.30;7.30;;;;;;;;;;5042778;28;20423;-90
2021/10/24 08:52:23;;;;;;;11.05;7.15;;;;;;;;;;5037754;28;20029;-91
2021/10/24 08:54:50;;;;;;;13.35;8.07;;;;;;;;;;5048611;28;20033;-91
2021/10/24 08:57:29;;;;;;;11.93;7.63;;;;;;;;;;5049502;28;20508;-90
2021/10/24 08:59:56;;;;;;;12.70;8.48;;;;;;;;;;5050615;28;20524;-92
2021/10/24 09:02:23;;;;;;;12.43;7.47;;;;;;;;;;5048908;28;20029;-91
2021/10/24 09:04:53;;;;;;;12.77;7.20;;;;;;;;;;5049710;28;20029;-91
2021/10/24 09:07:23;;;;;;;11.25;7.72;;;;;;;;;;5047651;28;20602;-89
2021/10/24 09:09:49;;;;;;;11.20;7.70;;;;;;;;;;5047622;28;20478;-91
2021/10/24 09:12:16;;;;;;;10.80;7.50;;;;;;;;;;5049979;28;20382;-91
2021/10/24 09:14:45;;;;;;;12.98;7.50;;;;;;;;;;5055352;28;20519;-91
2021/10/24 09:17:13;;;;;;;11.00;8.50;;;;;;;;;;5068457;28;20025;-90
2021/10/24 09:19:41;;;;;;;11.70;7.60;;;;;;;;;;5051972;28;20014;-91
2021/10/24 09:22:22;;;;;;;11.73;7.72;;;;;;;;;;5050665;28;20025;-91
2021/10/24 09:25:02;;;;;;;10.23;6.50;;;;;;;;;;5063049;28;20040;-91
2021/10/24 09:27:29;;;;;;;10.25;6.22;;;;;;;;;;5049941;28;20104;-91
2021/10/24 09:29:55;;;;;;;11.63;7.47;;;;;;;;;;5048753;28;20037;-91
2021/10/24 09:32:21;;;;;;;10.00;7.38;;;;;;;;;;5050101;28;20096;-91
2021/10/24 09:35:02;;;;;;;11.80;7.22;;;;;;;;;;5049574;28;20029;-90
2021/10/24 09:37:28;;;;;;;10.35;7.65;;;;;;;;;;5049819;28;20483;-91
2021/10/24 09:39:54;;;;;;;13.00;7.25;;;;;;;;;;5049408;28;20017;-90
2021/10/24 09:42:22;;;;;;;10.02;6.82;;;;;;;;;;5049859;28;20389;-91
2021/10/24 09:45:06;;;;;;;13.90;7.13;;;;;;;;;;5049319;28;20114;-91
2021/10/24 09:47:33;;;;;;;10.15;7.32;;;;;;;;;;5040830;28;20046;-92
2021/10/24 09:49:59;;;;;;;12.90;6.80;;;;;;;;;;5050823;28;20029;-92
2021/10/24 09:52:31;;;;;;;12.15;6.78;;;;;;;;;;5049521;28;20074;-91
2021/10/24 09:54:57;;;;;;;12.43;7.32;;;;;;;;;;5043624;28;20037;-90
2021/10/24 09:57:23;;;;;;;10.55;6.60;;;;;;;;;;5035285;28;20024;-90
2021/10/24 09:59:50;;;;;;;9.85;6.78;;;;;;;;;;5035254;28;20021;-91
2021/10/24 10:02:19;;;;;;;12.23;6.78;;;;;;;;;;5036003;28;20119;-91
2021/10/24 10:04:46;;;;;;;10.88;5.97;;;;;;;;;;5034854;28;20037;-91
2021/10/24 10:07:13;;;;;;;9.55;6.22;;;;;;;;;;5036017;28;20041;-91
2021/10/24 10:09:40;;;;;;;9.38;6.05;;;;;;;;;;5034215;28;20394;-92
2021/10/24 10:12:06;;;;;;;11.90;6.57;;;;;;;;;;5034846;28;20099;-91
2021/10/24 10:14:34;;;;;;;11.05;6.63;;;;;;;;;;5035160;28;20039;-90
2021/10/24 10:17:03;;;;;;;8.50;5.85;;;;;;;;;;5038509;28;20027;-91
2021/10/24 10:19:32;;;;;;;8.85;5.93;;;;;;;;;;5029430;28;20079;-89
2021/10/24 10:21:58;;;;;;;9.38;5.15;;;;;;;;;;5033086;28;20025;-88
2021/10/24 10:24:36;;;;;;;8.45;5.50;;;;;;;;;;5033961;28;20128;-88
2021/10/24 10:27:04;;;;;;;9.60;5.60;;;;;;;;;;5035520;28;20033;-89
2021/10/24 10:29:50;;;;;;;9.73;6.10;;;;;;;;;;5048991;28;20052;-89
2021/10/24 10:32:17;;;;;;;8.98;5.60;;;;;;;;;;5056621;28;20061;-88
2021/10/24 10:34:59;;;;;;;10.82;5.70;;;;;;;;;;5041036;28;20024;-88
2021/10/24 10:37:42;;;;;;;10.55;5.15;;;;;;;;;;5057780;28;20063;-88
2021/10/24 10:40:13;;;;;;;8.73;5.00;;;;;;;;;;5039854;28;20029;-88
2021/10/24 10:42:43;;;;;;;9.02;5.70;;;;;;;;;;5036760;28;20026;-89
2021/10/24 10:45:16;;;;;;;7.78;4.93;;;;;;;;;;5036171;28;20049;-88
2021/10/24 10:48:03;;;;;;;8.35;5.30;;;;;;;;;;5038682;28;20076;-89
2021/10/24 10:50:29;;;;;;;8.85;5.32;;;;;;;;;;5035222;28;20037;-89
2021/10/24 10:52:59;;;;;;;7.18;4.88;;;;;;;;;;5036858;28;20026;-89
2021/10/24 10:55:28;;;;;;;9.45;4.50;;;;;;;;;;5038306;28;20029;-89
2021/10/24 10:57:54;;;;;;;7.47;4.10;;;;;;;;;;5036053;28;20030;-89
2021/10/24 11:00:29;;;;;;;6.85;3.90;;;;;;;;;;5035860;28;20018;-88
2021/10/24 11:02:55;;;;;;;6.95;3.80;;;;;;;;;;5025197;28;20022;-89
2021/10/24 11:05:33;;;;;;;5.68;3.42;;;;;;;;;;5032694;28;20033;-89
2021/10/24 11:07:59;;;;;;;5.90;3.35;;;;;;;;;;5040335;28;20075;-89
2021/10/24 11:10:45;;;;;;;6.07;3.03;;;;;;;;;;5037578;28;20053;-90
2021/10/24 11:13:26;;;;;;;6.88;3.03;;;;;;;;;;5041283;28;20033;-89
2021/10/24 11:15:52;;;;;;;6.63;2.92;;;;;;;;;;5039202;28;20058;-88
2021/10/24 11:18:31;;;;;;;6.15;2.85;;;;;;;;;;5037309;28;20026;-90
2021/10/24 11:20:58;;;;;;;7.55;2.92;;;;;;;;;;5037229;28;20056;-88
2021/10/24 11:23:24;;;;;;;8.35;2.90;;;;;;;;;;5037123;28;20029;-89
2021/10/24 11:25:53;;;;;;;5.75;2.60;;;;;;;;;;5036338;28;20021;-89
2021/10/24 11:28:23;;;;;;;8.55;2.72;;;;;;;;;;5037312;28;20025;-89
2021/10/24 11:30:55;;;;;;;5.45;2.30;;;;;;;;;;5038368;28;20043;-89
2021/10/24 11:33:21;;;;;;;6.95;2.60;;;;;;;;;;5036872;28;20029;-88
2021/10/24 11:35:51;;;;;;;5.47;2.38;;;;;;;;;;5037394;28;20044;-91
2021/10/24 11:38:17;;;;;;;5.72;2.63;;;;;;;;;;5038813;28;20033;-88
2021/10/24 11:40:45;;;;;;;5.63;2.35;;;;;;;;;;5039057;28;20026;-89
2021/10/24 11:43:13;;;;;;;7.72;2.90;;;;;;;;;;5039750;28;20049;-88
2021/10/24 11:45:43;;;;;;;5.90;2.90;;;;;;;;;;5039912;28;20116;-88
2021/10/24 11:48:22;;;;;;;5.65;2.70;;;;;;;;;;5027859;28;20050;-89
2021/10/24 11:50:49;;;;;;;7.38;2.90;;;;;;;;;;5039737;28;20489;-88
2021/10/24 11:53:32;;;;;;;6.18;2.72;;;;;;;;;;5043374;28;20034;-90
2021/10/24 11:56:04;;;;;;;5.53;2.35;;;;;;;;;;5052055;28;20021;-92
2021/10/24 11:58:38;;;;;;;5.57;2.40;;;;;;;;;;5058662;28;20032;-90
2021/10/24 12:01:15;;;;;;;6.35;2.10;;;;;;;;;;5058603;28;20024;-90
2021/10/24 12:03:42;;;;;;;4.78;2.03;;;;;;;;;;5056769;28;20073;-90
2021/10/24 12:06:09;;;;;;;6.35;2.30;;;;;;;;;;5064286;28;20032;-90
2021/10/24 12:08:45;;;;;;;5.18;2.20;;;;;;;;;;5038111;28;20031;-89
2021/10/24 12:11:16;;;;;;;5.20;1.90;;;;;;;;;;5038477;28;20167;-90
2021/10/24 12:13:43;;;;;;;5.35;2.28;;;;;;;;;;5022941;28;20033;-89
2021/10/24 12:16:29;;;;;;;4.80;2.25;;;;;;;;;;5038764;28;20029;-89
2021/10/24 12:19:09;;;;;;;8.23;2.38;;;;;;;;;;5041581;28;20082;-88
2021/10/24 12:21:35;;;;;;;4.85;2.00;;;;;;;;;;5036873;28;20032;-90
2021/10/24 12:24:34;;;;;;;6.57;2.22;;;;;;;;;;5037152;28;20033;-90
2021/10/24 12:27:07;;;;;;;5.25;2.30;;;;;;;;;;4975183;28;20031;-88
2021/10/24 12:29:33;;;;;;;6.32;2.05;;;;;;;;;;4958391;28;20114;-89
2021/10/24 12:32:10;;;;;;;4.65;2.10;;;;;;;;;;4958133;28;20069;-89
2021/10/24 12:34:36;;;;;;;5.38;2.83;;;;;;;;;;4974686;28;20062;-88
2021/10/24 12:37:02;;;;;;;6.05;2.20;;;;;;;;;;4958456;28;20110;-90
2021/10/24 12:39:28;;;;;;;5.82;1.98;;;;;;;;;;4976624;28;20478;-88
2021/10/24 12:41:55;;;;;;;6.13;2.05;;;;;;;;;;4978631;28;20502;-90
2021/10/24 12:44:24;;;;;;;5.53;2.03;;;;;;;;;;4976914;28;20042;-89
2021/10/24 12:46:51;;;;;;;4.30;2.33;;;;;;;;;;4976201;28;20034;-89
2021/10/24 12:49:18;;;;;;;5.68;2.20;;;;;;;;;;4976556;28;20038;-88
2021/10/24 12:51:45;;;;;;;8.10;2.78;;;;;;;;;;4976566;28;20034;-87
2021/10/24 12:54:12;;;;;;;7.70;2.13;;;;;;;;;;4976368;28;20026;-88
2021/10/24 12:56:40;;;;;;;6.90;2.17;;;;;;;;;;4957352;28;20031;-88
2021/10/24 12:59:07;;;;;;;10.15;3.10;;;;;;;;;;4937548;29;20038;-89
2021/10/24 13:01:35;;;;;;;5.60;2.53;;;;;;;;;;4963332;28;20101;-86
2021/10/24 13:04:02;;;;;;;5.57;2.53;;;;;;;;;;5035880;28;20032;-88
2021/10/24 13:06:32;;;;;;;5.45;2.20;;;;;;;;;;5035017;28;20024;-87
2021/10/24 13:08:59;;;;;;;5.65;3.13;;;;;;;;;;5041168;28;20124;-88
2021/10/24 13:11:26;;;;;;;6.30;2.17;;;;;;;;;;5052364;28;20116;-89
2021/10/24 13:13:52;;;;;;;6.07;2.50;;;;;;;;;;5043500;28;20087;-89
2021/10/24 13:16:18;;;;;;;5.78;2.13;;;;;;;;;;5032794;28;20025;-89
2021/10/24 13:18:45;;;;;;;5.25;2.38;;;;;;;;;;5035628;28;20025;-89
2021/10/24 13:23:56;;;;;;;7.63;3.03;;;;;;;;;;5073709;28;20043;-88
2021/10/24 13:26:22;;;;;;;4.90;2.70;;;;;;;;;;5055990;28;20031;-90
2021/10/24 13:28:49;;;;;;;6.60;3.15;;;;;;;;;;5056465;28;20020;-89
2021/10/24 13:31:15;;;;;;;7.22;2.40;;;;;;;;;;5058333;28;20052;-89
2021/10/24 13:33:41;;;;;;;5.68;2.28;;;;;;;;;;5062750;28;20419;-89
2021/10/24 13:36:08;;;;;;;6.25;3.00;;;;;;;;;;5061599;28;20028;-91
2021/10/24 13:38:34;;;;;;;5.75;2.42;;;;;;;;;;5064393;28;20020;-89
2021/10/24 13:41:00;;;;;;;7.03;2.85;;;;;;;;;;5062835;28;20029;-91
2021/10/24 13:43:27;;;;;;;8.05;4.18;;;;;;;;;;5053913;28;20077;-90
2021/10/24 13:45:53;;;;;;;7.15;3.85;;;;;;;;;;5042421;28;20040;-90
2021/10/24 13:48:19;;;;;;;5.82;2.65;;;;;;;;;;5041416;28;20036;-90
2021/10/24 13:50:45;;;;;;;7.75;3.25;;;;;;;;;;5042691;28;20032;-90
2021/10/24 13:53:12;;;;;;;6.10;2.33;;;;;;;;;;5040621;28;20500;-90
2021/10/24 13:55:38;;;;;;;5.65;2.95;;;;;;;;;;5041793;28;20037;-90
2021/10/24 13:58:04;;;;;;;4.70;2.65;;;;;;;;;;5041842;28;20028;-91
2021/10/24 14:00:30;;;;;;;5.10;2.45;;;;;;;;;;5042808;28;20033;-88
2021/10/24 14:02:57;;;;;;;6.70;3.05;;;;;;;;;;5062864;28;20025;-90
2021/10/24 14:05:23;;;;;;;5.68;2.63;;;;;;;;;;5059250;28;20394;-90
2021/10/24 14:07:50;;;;;;;6.50;3.40;;;;;;;;;;5058904;28;20108;-90
2021/10/24 14:10:16;;;;;;;7.35;3.28;;;;;;;;;;5058728;28;20375;-90
2021/10/24 14:12:43;;;;;;;7.00;2.60;;;;;;;;;;5057437;28;20031;-90
2021/10/24 14:15:09;;;;;;;6.80;2.50;;;;;;;;;;5056918;28;20025;-89
2021/10/24 14:17:36;;;;;;;6.18;2.60;;;;;;;;;;5058689;28;20484;-89
2021/10/24 14:20:04;;;;;;;4.22;2.40;;;;;;;;;;5057508;28;20033;-89
2021/10/24 14:22:30;;;;;;;7.53;2.90;;;;;;;;;;5059247;28;20021;-91
2021/10/24 14:24:56;;;;;;;5.40;1.95;;;;;;;;;;5062117;28;20029;-89
2021/10/24 14:27:22;;;;;;;6.65;2.70;;;;;;;;;;5059912;28;20023;-91
2021/10/24 14:29:48;;;;;;;6.80;2.92;;;;;;;;;;5058340;28;20113;-90
2021/10/24 14:32:15;;;;;;;8.30;3.15;;;;;;;;;;5058165;28;20052;-90
2021/10/24 14:34:42;;;;;;;5.63;2.80;;;;;;;;;;5063320;28;20074;-89
2021/10/24 14:37:08;;;;;;;5.40;2.80;;;;;;;;;;5063401;28;20055;-90
2021/10/24 14:39:34;;;;;;;5.38;2.33;;;;;;;;;;5064116;28;20024;-90
2021/10/24 14:42:01;;;;;;;5.63;2.53;;;;;;;;;;5062272;28;20128;-90
2021/10/24 14:44:27;;;;;;;5.07;2.60;;;;;;;;;;5060304;28;20041;-90
2021/10/24 14:46:54;;;;;;;5.82;2.30;;;;;;;;;;5058927;28;20027;-89
2021/10/24 14:49:21;;;;;;;6.13;2.58;;;;;;;;;;5046045;28;20486;-89
2021/10/24 14:51:47;;;;;;;5.93;2.30;;;;;;;;;;5038037;28;20028;-89
2021/10/24 14:54:13;;;;;;;4.80;2.30;;;;;;;;;;5038175;28;20082;-89
2021/10/24 14:56:40;;;;;;;6.30;2.25;;;;;;;;;;5038748;28;20033;-89
2021/10/24 14:59:08;;;;;;;6.10;3.30;;;;;;;;;;5038868;28;20025;-90
2021/10/24 15:01:34;;;;;;;7.68;3.08;;;;;;;;;;5038206;28;20484;-89
2021/10/24 15:04:01;;;;;;;6.32;2.90;;;;;;;;;;5057193;28;20032;-90
2021/10/24 15:06:27;;;;;;;5.18;2.35;;;;;;;;;;5038970;28;20021;-90
2021/10/24 15:08:53;;;;;;;5.20;2.65;;;;;;;;;;5049807;28;20028;-90
2021/10/24 15:11:19;;;;;;;6.25;2.78;;;;;;;;;;5043832;28;20013;-89
2021/10/24 15:13:46;;;;;;;6.30;2.75;;;;;;;;;;5057698;28;20028;-89
2021/10/24 15:16:22;;;;;;;6.25;2.88;;;;;;;;;;5075532;28;20028;-90
2021/10/24 15:19:04;;;;;;;6.63;2.90;;;;;;;;;;5057708;28;20029;-90
2021/10/24 15:21:30;;;;;;;5.53;2.40;;;;;;;;;;5057332;28;20378;-90
2021/10/24 15:23:56;;;;;;;5.90;2.85;;;;;;;;;;5057212;28;20020;-90
2021/10/24 15:26:23;;;;;;;6.22;2.35;;;;;;;;;;5045379;28;20009;-89
2021/10/24 15:28:51;;;;;;;5.57;2.83;;;;;;;;;;5042592;28;20052;-87
2021/10/24 15:31:24;;;;;;;5.68;2.67;;;;;;;;;;5051292;28;20024;-88
2021/10/24 15:33:49;;;;;;;;;;;;;;;;;;5037660;28;20025;-90
2021/10/24 15:36:16;;;;;;;6.03;3.03;;;;;;;;;;5036578;28;19908;-89
2021/10/24 15:38:42;;;;;;;7.57;3.10;;;;;;;;;;5052293;28;20029;-89
2021/10/24 15:41:08;;;;;;;5.55;2.47;;;;;;;;;;5056588;28;20477;-89
2021/10/24 15:43:35;;;;;;;7.72;2.97;;;;;;;;;;5057569;28;20412;-88
2021/10/24 15:46:02;;;;;;;5.97;3.33;;;;;;;;;;5056596;28;20027;-90
2021/10/24 15:48:28;;;;;;;6.70;3.33;;;;;;;;;;5056079;28;20103;-89
2021/10/24 15:50:54;;;;;;;6.85;3.05;;;;;;;;;;5056891;28;20024;-89
2021/10/24 15:53:20;;;;;;;6.05;2.60;;;;;;;;;;5056160;28;20107;-88
2021/10/24 15:55:47;;;;;;;5.93;2.97;;;;;;;;;;5074115;28;20020;-88
2021/10/24 15:58:17;;;;;;;6.28;2.88;;;;;;;;;;5045018;28;20434;-89
2021/10/24 16:00:43;;;;;;;7.22;3.22;;;;;;;;;;5036269;28;20025;-88
2021/10/24 16:03:10;;;;;;;7.93;3.55;;;;;;;;;;5036605;28;20029;-87
2021/10/24 16:05:36;;;;;;;6.00;3.55;;;;;;;;;;5036227;28;20025;-88
2021/10/24 16:08:03;;;;;;;6.45;3.08;;;;;;;;;;5048011;28;20025;-88
2021/10/24 16:10:30;;;;;;;6.88;2.80;;;;;;;;;;5049715;28;20024;-88
2021/10/24 16:12:56;;;;;;;7.50;3.47;;;;;;;;;;5035926;28;20014;-88
2021/10/24 16:15:22;;;;;;;7.60;3.28;;;;;;;;;;5036235;28;20112;-87
2021/10/24 16:17:49;;;;;;;6.28;3.30;;;;;;;;;;5035910;28;20032;-89
2021/10/24 16:20:17;;;;;;;7.60;3.65;;;;;;;;;;5043879;28;20017;-88
2021/10/24 16:22:43;;;;;;;6.50;3.22;;;;;;;;;;5052085;28;20017;-88
2021/10/24 16:25:10;;;;;;;5.70;2.88;;;;;;;;;;5060701;28;20024;-89
2021/10/24 16:27:36;;;;;;;6.80;2.78;;;;;;;;;;5061047;28;20028;-89
2021/10/24 16:30:03;;;;;;;7.10;3.45;;;;;;;;;;5067666;28;20024;-89
2021/10/24 16:32:29;;;;;;;7.35;3.58;;;;;;;;;;5062453;28;20028;-88
2021/10/24 16:34:55;;;;;;;7.18;3.00;;;;;;;;;;5048049;28;20061;-88
2021/10/24 16:37:21;;;;;;;6.20;3.45;;;;;;;;;;5036217;28;20021;-88
2021/10/24 16:39:48;;;;;;;8.60;3.20;;;;;;;;;;5053992;28;20029;-88
2021/10/24 16:42:14;;;;;;;11.43;4.10;;;;;;;;;;5035902;28;20025;-88
2021/10/24 16:44:41;;;;;;;5.63;2.83;;;;;;;;;;5053588;28;20056;-88
2021/10/24 16:47:07;;;;;;;6.35;2.95;;;;;;;;;;5035716;28;20021;-88
2021/10/24 16:49:33;;;;;;;6.97;3.20;;;;;;;;;;5042084;28;20021;-88
2021/10/24 16:51:59;;;;;;;7.38;3.08;;;;;;;;;;5055507;28;20021;-88
2021/10/24 16:54:25;;;;;;;6.50;3.15;;;;;;;;;;5054569;28;20028;-88
2021/10/24 16:56:51;;;;;;;4.90;2.95;;;;;;;;;;5055460;28;20136;-88
2021/10/24 16:59:17;;;;;;;7.38;3.40;;;;;;;;;;5073209;28;20025;-88
2021/10/24 17:01:43;;;;;;;8.63;3.47;;;;;;;;;;5055160;28;20435;-89
2021/10/24 17:04:09;;;;;;;6.50;3.03;;;;;;;;;;5052130;28;20028;-88
2021/10/24 17:06:36;;;;;;;6.78;2.97;;;;;;;;;;5059163;28;20035;-88
2021/10/24 17:09:04;;;;;;;6.30;3.17;;;;;;;;;;5058626;28;20093;-88
2021/10/24 17:11:30;;;;;;;7.50;3.10;;;;;;;;;;5059325;28;20024;-88
2021/10/24 17:13:56;;;;;;;9.45;3.65;;;;;;;;;;5058949;28;20435;-89
2021/10/24 17:16:22;;;;;;;6.40;3.30;;;;;;;;;;5055855;28;20111;-90
2021/10/24 17:18:48;;;;;;;8.20;3.35;;;;;;;;;;5057493;28;20028;-88
2021/10/24 17:21:14;;;;;;;6.85;3.42;;;;;;;;;;5057344;28;20031;-87
2021/10/24 17:23:43;;;;;;;6.88;2.90;;;;;;;;;;5058463;28;20028;-88
2021/10/24 17:26:09;;;;;;;7.13;3.55;;;;;;;;;;5057859;28;20370;-87
2021/10/24 17:28:35;;;;;;;7.78;3.83;;;;;;;;;;5058867;28;20031;-87
2021/10/24 17:31:01;;;;;;;6.22;3.17;;;;;;;;;;5059216;28;20050;-88
2021/10/24 17:33:28;;;;;;;7.05;3.45;;;;;;;;;;5058855;28;20094;-88
2021/10/24 17:35:54;;;;;;;6.60;3.80;;;;;;;;;;5076805;28;20070;-88
2021/10/24 17:38:21;;;;;;;7.88;4.20;;;;;;;;;;5057942;28;20119;-88
2021/10/24 17:40:47;;;;;;;6.38;3.60;;;;;;;;;;5058546;28;20078;-88
2021/10/24 17:43:13;;;;;;;7.88;3.85;;;;;;;;;;5058873;28;20048;-87
2021/10/24 17:45:39;;;;;;;8.32;3.85;;;;;;;;;;5076387;28;20083;-88
2021/10/24 17:48:06;;;;;;;9.80;4.72;;;;;;;;;;5058853;28;20420;-88
2021/10/24 17:50:32;;;;;;;8.85;4.60;;;;;;;;;;5058249;28;20028;-88
2021/10/24 17:52:58;;;;;;;6.65;3.58;;;;;;;;;;5058440;28;20393;-87
2021/10/24 17:55:24;;;;;;;6.88;3.65;;;;;;;;;;5058576;28;20055;-88
2021/10/24 17:57:51;;;;;;;5.55;3.20;;;;;;;;;;5058216;28;20031;-88
2021/10/24 18:00:18;;;;;;;7.22;3.40;;;;;;;;;;5058384;28;20313;-88
2021/10/24 18:02:47;;;;;;;7.28;3.47;;;;;;;;;;5049015;28;20020;-88
2021/10/24 18:05:13;;;;;;;7.43;3.90;;;;;;;;;;5038339;28;20024;-88
2021/10/24 18:07:39;;;;;;;6.10;3.00;;;;;;;;;;5049787;28;20036;-88
2021/10/24 18:10:08;;;;;;;8.90;4.38;;;;;;;;;;5054984;28;20032;-88
2021/10/24 18:12:35;;;;;;;8.27;3.33;;;;;;;;;;5050528;28;20029;-89
2021/10/24 18:15:01;;;;;;;8.57;3.78;;;;;;;;;;5043522;28;20025;-87
2021/10/24 18:17:27;;;;;;;9.25;3.53;;;;;;;;;;5037813;28;20025;-88
2021/10/24 18:19:53;;;;;;;7.55;4.28;;;;;;;;;;5038611;28;20031;-87
2021/10/24 18:22:19;;;;;;;7.45;3.78;;;;;;;;;;5037534;28;20025;-88
2021/10/24 18:24:47;;;;;;;5.90;3.15;;;;;;;;;;5035929;28;20029;-87
2021/10/24 18:27:13;;;;;;;5.75;2.83;;;;;;;;;;5040254;28;20119;-87
2021/10/24 18:29:39;;;;;;;7.28;3.40;;;;;;;;;;5057145;28;20021;-87
2021/10/24 18:32:06;;;;;;;7.35;3.83;;;;;;;;;;5056829;28;20025;-86
2021/10/24 18:34:32;;;;;;;7.50;3.67;;;;;;;;;;5055800;28;20029;-87
2021/10/24 18:36:58;;;;;;;6.05;3.55;;;;;;;;;;5056139;28;20036;-87
2021/10/24 18:39:25;;;;;;;7.03;3.65;;;;;;;;;;5054815;28;20017;-87
2021/10/24 18:41:53;;;;;;;7.13;3.40;;;;;;;;;;5055246;28;20064;-87
2021/10/24 18:44:20;;;;;;;5.75;3.17;;;;;;;;;;5054788;28;20044;-87
2021/10/24 18:46:51;;;;;;;5.60;3.33;;;;;;;;;;5055409;28;20478;-88
2021/10/24 18:49:17;;;;;;;7.97;3.50;;;;;;;;;;5054764;28;20017;-87
2021/10/24 18:51:44;;;;;;;7.22;3.58;;;;;;;;;;5055076;28;20032;-87
2021/10/24 18:54:10;;;;;;;6.95;3.80;;;;;;;;;;5054945;28;20128;-88
2021/10/24 18:56:37;;;;;;;6.20;3.38;;;;;;;;;;5055035;28;20056;-87
2021/10/24 18:59:03;;;;;;;7.07;3.78;;;;;;;;;;5054813;28;20433;-87
2021/10/24 19:01:29;;;;;;;6.85;3.92;;;;;;;;;;5054929;28;20473;-87
2021/10/24 19:03:55;;;;;;;6.38;3.47;;;;;;;;;;5055066;28;20025;-87
2021/10/24 19:06:22;;;;;;;7.78;3.97;;;;;;;;;;5054508;28;20040;-87
2021/10/24 19:08:48;;;;;;;7.95;4.13;;;;;;;;;;5052112;28;20028;-88
2021/10/24 19:11:15;;;;;;;6.55;3.72;;;;;;;;;;5038432;28;20032;-88
2021/10/24 19:13:41;;;;;;;6.57;4.13;;;;;;;;;;5038980;28;20052;-87
2021/10/24 19:16:08;;;;;;;11.93;5.60;;;;;;;;;;5038387;28;20045;-87
2021/10/24 19:18:35;;;;;;;7.97;4.25;;;;;;;;;;5038560;28;20025;-88
2021/10/24 19:21:01;;;;;;;9.98;4.78;;;;;;;;;;5038305;28;20032;-87
2021/10/24 19:23:28;;;;;;;8.15;3.97;;;;;;;;;;5038067;28;20021;-87
2021/10/24 19:25:55;;;;;;;6.93;4.25;;;;;;;;;;5037877;28;20108;-87
2021/10/24 19:28:24;;;;;;;8.23;4.25;;;;;;;;;;5036261;28;20104;-86
2021/10/24 19:30:51;;;;;;;7.72;3.92;;;;;;;;;;5037728;28;20021;-86
2021/10/24 19:33:17;;;;;;;6.97;4.32;;;;;;;;;;5037311;28;20474;-86
2021/10/24 19:35:45;;;;;;;8.05;4.55;;;;;;;;;;5037488;28;20079;-86
2021/10/24 19:38:11;;;;;;;8.50;4.25;;;;;;;;;;5037266;28;20036;-87
2021/10/24 19:40:41;;;;;;;8.40;4.20;;;;;;;;;;5037389;28;20557;-86
2021/10/24 19:43:20;;;;;;;7.60;4.22;;;;;;;;;;5038024;28;20032;-88
2021/10/24 19:45:49;;;;;;;9.65;4.88;;;;;;;;;;5038021;28;20482;-88
2021/10/24 19:48:32;;;;;;;9.05;4.57;;;;;;;;;;5037691;28;20401;-88
2021/10/24 19:50:58;;;;;;;8.43;5.25;;;;;;;;;;5037547;28;20021;-88
2021/10/24 19:53:25;;;;;;;10.82;5.40;;;;;;;;;;5037658;28;20034;-88
2021/10/24 19:55:51;;;;;;;7.57;4.47;;;;;;;;;;5037886;28;20386;-88
2021/10/24 19:58:22;;;;;;;7.28;4.40;;;;;;;;;;5038530;28;20032;-88
2021/10/24 20:00:51;;;;;;;7.60;4.22;;;;;;;;;;5038041;28;20029;-88
2021/10/24 20:03:17;;;;;;;8.10;4.68;;;;;;;;;;5037574;28;20106;-88
2021/10/24 20:05:44;;;;;;;8.98;4.43;;;;;;;;;;5038506;28;20116;-88
2021/10/24 20:08:10;;;;;;;7.60;4.40;;;;;;;;;;5037649;28;20047;-89
2021/10/24 20:10:37;;;;;;;9.07;4.47;;;;;;;;;;5037768;28;20079;-88
2021/10/24 20:13:06;;;;;;;9.05;4.57;;;;;;;;;;5037997;28;20056;-88
2021/10/24 20:15:32;;;;;;;9.75;5.57;;;;;;;;;;5037758;28;20023;-88
2021/10/24 20:18:00;;;;;;;9.38;5.18;;;;;;;;;;5037097;28;20021;-88
2021/10/24 20:20:27;;;;;;;9.90;5.10;;;;;;;;;;5037379;28;20028;-88
2021/10/24 20:22:53;;;;;;;8.88;4.40;;;;;;;;;;5037112;28;20025;-88
2021/10/24 20:25:19;;;;;;;8.73;4.07;;;;;;;;;;5035957;28;20119;-88
2021/10/24 20:27:45;;;;;;;8.10;4.53;;;;;;;;;;5036604;28;20023;-88
2021/10/24 20:30:11;;;;;;;8.23;4.85;;;;;;;;;;5036781;28;20025;-88
2021/10/24 20:32:37;;;;;;;8.77;4.97;;;;;;;;;;5037043;28;20478;-88
2021/10/24 20:35:05;;;;;;;8.73;4.88;;;;;;;;;;5036922;28;20040;-88
2021/10/24 20:37:36;;;;;;;9.75;5.20;;;;;;;;;;5037621;28;20466;-88
2021/10/24 20:40:03;;;;;;;10.20;5.03;;;;;;;;;;5036243;28;20083;-89
2021/10/24 20:42:29;;;;;;;9.10;5.20;;;;;;;;;;5037566;28;20431;-88
2021/10/24 20:44:55;;;;;;;8.63;5.00;;;;;;;;;;5031307;28;20473;-88
2021/10/24 20:47:25;;;;;;;8.80;4.82;;;;;;;;;;5033203;28;20029;-88
2021/10/24 20:49:52;;;;;;;9.40;4.90;;;;;;;;;;5034070;28;20029;-88
2021/10/24 20:52:18;;;;;;;7.70;4.80;;;;;;;;;;5034677;28;20024;-88
2021/10/24 20:54:44;;;;;;;9.70;4.82;;;;;;;;;;5034800;28;20025;-89
2021/10/24 20:57:10;;;;;;;8.55;4.70;;;;;;;;;;5035211;28;20021;-88
2021/10/24 20:59:36;;;;;;;9.57;4.80;;;;;;;;;;5034397;28;20021;-89
2021/10/24 21:02:03;;;;;;;9.10;4.40;;;;;;;;;;5047771;28;20025;-88
2021/10/24 21:04:29;;;;;;;7.22;4.85;;;;;;;;;;5054894;28;20039;-89
2021/10/24 21:06:58;;;;;;;8.23;4.93;;;;;;;;;;5050892;28;20108;-88
2021/10/24 21:09:24;;;;;;;8.27;5.28;;;;;;;;;;5034729;28;20025;-87
2021/10/24 21:11:50;;;;;;;9.38;5.15;;;;;;;;;;5034722;28;20030;-88
2021/10/24 21:14:16;;;;;;;9.02;4.53;;;;;;;;;;5034084;28;20512;-88
2021/10/24 21:16:42;;;;;;;7.13;4.47;;;;;;;;;;5034799;28;20030;-89
2021/10/24 21:19:09;;;;;;;8.75;4.65;;;;;;;;;;5034224;28;20022;-87
2021/10/24 21:21:35;;;;;;;8.32;4.75;;;;;;;;;;5033074;28;20483;-91
2021/10/24 21:24:01;;;;;;;7.38;4.78;;;;;;;;;;5031750;28;20132;-91
2021/10/24 21:26:27;;;;;;;7.80;5.00;;;;;;;;;;5033622;28;20029;-90
2021/10/24 21:28:54;;;;;;;8.32;4.80;;;;;;;;;;5034421;28;20026;-90
2021/10/24 21:31:20;;;;;;;11.52;5.78;;;;;;;;;;5051810;28;20032;-90
2021/10/24 21:33:46;;;;;;;8.82;4.85;;;;;;;;;;5053135;28;20040;-90
2021/10/24 21:36:12;;;;;;;8.55;4.95;;;;;;;;;;5054870;28;20025;-90
2021/10/24 21:38:38;;;;;;;10.00;5.00;;;;;;;;;;5036497;28;20026;-90
2021/10/24 21:41:04;;;;;;;12.13;4.88;;;;;;;;;;5037040;28;20033;-90
2021/10/24 21:43:30;;;;;;;12.00;5.85;;;;;;;;;;5035545;28;20048;-90
2021/10/24 21:45:56;;;;;;;9.60;4.90;;;;;;;;;;5047625;28;20036;-91
2021/10/24 21:48:24;;;;;;;8.70;4.57;;;;;;;;;;5050162;28;20028;-91
2021/10/24 21:50:51;;;;;;;7.10;4.82;;;;;;;;;;5032141;28;20028;-91
2021/10/24 21:53:17;;;;;;;6.90;4.57;;;;;;;;;;5034588;28;20025;-91
2021/10/24 21:55:43;;;;;;;7.45;4.38;;;;;;;;;;5035551;28;20021;-89
2021/10/24 21:58:09;;;;;;;7.35;3.92;;;;;;;;;;5036534;28;20025;-90
2021/10/24 22:00:37;;;;;;;7.00;4.20;;;;;;;;;;5040102;28;20021;-90
2021/10/24 22:03:03;;;;;;;8.05;3.95;;;;;;;;;;5043056;28;20032;-91
2021/10/24 22:05:29;;;;;;;7.93;4.03;;;;;;;;;;5035977;28;20030;-90
2021/10/24 22:07:56;;;;;;;7.13;4.18;;;;;;;;;;5036284;28;20033;-90
2021/10/24 22:10:22;;;;;;;7.85;4.60;;;;;;;;;;5038213;28;20095;-91
2021/10/24 22:12:48;;;;;;;9.63;3.97;;;;;;;;;;5045536;28;20479;-89
2021/10/24 22:15:14;;;;;;;8.30;5.00;;;;;;;;;;5036041;28;20021;-91
2021/10/24 22:17:40;;;;;;;6.97;3.67;;;;;;;;;;5043894;28;20025;-90
2021/10/24 22:20:10;;;;;;;8.82;4.25;;;;;;;;;;5047609;28;20098;-90
2021/10/24 22:22:36;;;;;;;7.18;3.60;;;;;;;;;;5037875;28;20485;-91
2021/10/24 22:25:03;;;;;;;10.25;4.22;;;;;;;;;;5040467;28;20068;-90
2021/10/24 22:27:29;;;;;;;9.52;4.50;;;;;;;;;;5035337;28;20391;-91
2021/10/24 22:29:56;;;;;;;7.20;3.90;;;;;;;;;;5052158;28;20021;-91
2021/10/24 22:32:23;;;;;;;10.13;4.38;;;;;;;;;;5054428;28;20029;-90
2021/10/24 22:34:49;;;;;;;8.35;5.28;;;;;;;;;;5056464;28;20025;-91
2021/10/24 22:37:15;;;;;;;9.10;3.97;;;;;;;;;;5052721;28;20029;-91
2021/10/24 22:39:41;;;;;;;8.65;4.38;;;;;;;;;;5033569;28;20040;-91
2021/10/24 22:42:07;;;;;;;8.55;4.47;;;;;;;;;;5034589;28;20418;-90
2021/10/24 22:44:34;;;;;;;7.38;3.50;;;;;;;;;;5035763;28;20041;-91
2021/10/24 22:47:00;;;;;;;7.97;4.28;;;;;;;;;;5039164;28;20021;-91
2021/10/24 22:49:26;;;;;;;7.38;3.50;;;;;;;;;;5034639;28;20064;-90
2021/10/24 22:51:52;;;;;;;5.95;3.38;;;;;;;;;;5034201;28;20048;-92
2021/10/24 22:54:19;;;;;;;6.13;3.33;;;;;;;;;;5039789;28;20079;-93
2021/10/24 22:56:45;;;;;;;8.25;3.65;;;;;;;;;;5053266;28;20401;-90